Time;durP1;ratioP1;P1;durP2;ratioP2;P2;SDS_P1;SDS_P2;PMS_P1;PMS_P2;Temp;Humidity;BMP_temperature;BMP_pressure;BME280_temperature;BME280_humidity;BME280_pressure;Samples;Min_cycle;Max_cycle;Signal;HPM_P1;HPM_P2
2022/04/28 00:02:19;;;;;;;18.80;11.20;;;5.10;83.20;;;;;;4809144;29;20207;-83
2022/04/28 00:04:45;;;;;;;18.30;11.33;;;5.10;83.20;;;;;;4810310;29;20183;-84
2022/04/28 00:07:10;;;;;;;22.77;11.47;;;5.10;83.60;;;;;;4826045;29;20187;-84
2022/04/28 00:09:36;;;;;;;16.97;11.07;;;5.10;83.80;;;;;;4809312;29;20242;-84
2022/04/28 00:12:03;;;;;;;26.47;12.13;;;5.20;83.90;;;;;;4809810;29;20647;-84
2022/04/28 00:14:30;;;;;;;16.30;11.50;;;5.10;84.00;;;;;;4825803;29;20183;-84
2022/04/28 00:16:55;;;;;;;24.07;11.27;;;5.10;84.00;;;;;;4824697;29;20666;-83
2022/04/28 00:19:21;;;;;;;18.80;11.97;;;5.10;84.10;;;;;;4824590;29;20184;-83
2022/04/28 00:21:47;;;;;;;19.30;11.27;;;5.00;84.50;;;;;;4824681;29;20579;-84
2022/04/28 00:24:12;;;;;;;20.23;12.67;;;5.00;84.90;;;;;;4824327;29;20181;-84
2022/04/28 00:26:46;;;;;;;20.83;12.17;;;4.90;85.00;;;;;;4808044;29;20596;-83
2022/04/28 00:29:11;;;;;;;22.67;11.87;;;4.90;85.10;;;;;;4807876;29;20189;-84
2022/04/28 00:31:37;;;;;;;20.50;11.30;;;4.90;85.20;;;;;;4824439;29;20215;-85
2022/04/28 00:34:03;;;;;;;26.67;12.33;;;4.80;84.70;;;;;;4807602;29;20199;-85
2022/04/28 00:36:29;;;;;;;23.57;14.20;;;4.90;84.50;;;;;;4807676;29;20217;-84
2022/04/28 00:38:54;;;;;;;28.87;15.73;;;4.90;84.30;;;;;;4807575;29;20232;-84
2022/04/28 00:41:20;;;;;;;27.77;16.63;;;4.90;83.80;;;;;;4807532;29;20222;-85
2022/04/28 00:43:54;;;;;;;28.30;14.40;;;4.90;83.70;;;;;;4823837;29;20187;-84
2022/04/28 00:46:21;;;;;;;22.30;14.10;;;4.80;83.70;;;;;;4824014;29;20194;-85
2022/04/28 00:51:32;;;;;;;21.37;13.27;;;4.60;84.50;;;;;;4824170;29;20291;-84
2022/04/28 00:54:00;;;;;;;23.53;13.23;;;4.70;84.70;;;;;;4807554;29;20317;-84
2022/04/28 00:56:30;;;;;;;19.07;12.53;;;4.60;84.80;;;;;;4807830;29;20553;-84
2022/04/28 00:58:58;;;;;;;18.50;12.43;;;4.30;84.40;;;;;;4810851;29;20178;-84
2022/04/28 01:01:24;;;;;;;22.40;13.17;;;4.30;84.80;;;;;;4826922;29;20188;-84
2022/04/28 01:03:49;;;;;;;14.77;11.67;;;4.30;84.80;;;;;;4810655;29;20178;-84
2022/04/28 01:06:15;;;;;;;23.20;13.23;;;4.10;84.40;;;;;;4810714;29;20181;-84
2022/04/28 01:08:41;;;;;;;24.77;12.97;;;4.00;84.70;;;;;;4810715;29;20268;-84
2022/04/28 01:11:07;;;;;;;24.40;13.53;;;4.10;85.00;;;;;;4810494;29;20597;-84
2022/04/28 01:13:33;;;;;;;22.77;13.83;;;4.10;84.90;;;;;;4810597;29;20249;-84
2022/04/28 01:15:59;;;;;;;20.00;13.30;;;4.10;84.90;;;;;;4810525;29;20611;-84
2022/04/28 01:18:25;;;;;;;23.27;13.63;;;4.10;84.90;;;;;;4810503;29;20185;-84
2022/04/28 01:20:50;;;;;;;24.90;14.10;;;4.20;85.30;;;;;;4810446;29;20180;-84
2022/04/28 01:23:18;;;;;;;20.93;12.60;;;4.10;85.30;;;;;;4826622;29;20580;-84
2022/04/28 01:25:44;;;;;;;21.67;12.93;;;4.00;85.00;;;;;;4826644;29;20272;-84
2022/04/28 01:28:09;;;;;;;22.80;14.03;;;3.90;85.10;;;;;;4826562;29;20219;-84
2022/04/28 01:30:37;;;;;;;23.73;14.10;;;4.00;85.60;;;;;;4810174;29;20208;-83
2022/04/28 01:33:03;;;;;;;23.07;13.40;;;4.00;85.90;;;;;;4810006;29;20257;-84
2022/04/28 01:35:28;;;;;;;24.93;12.27;;;4.20;85.90;;;;;;4826368;29;20600;-85
2022/04/28 01:37:54;;;;;;;21.70;13.43;;;4.10;85.40;;;;;;4810050;29;20177;-84
2022/04/28 01:40:20;;;;;;;22.20;13.17;;;4.10;85.50;;;;;;4826416;29;20561;-84
2022/04/28 01:42:47;;;;;;;27.63;14.07;;;4.00;85.40;;;;;;4809989;29;20288;-84
2022/04/28 01:45:14;;;;;;;26.03;14.17;;;4.00;85.50;;;;;;4826528;29;20178;-84
2022/04/28 01:47:39;;;;;;;19.77;13.47;;;4.00;85.60;;;;;;4826415;29;20300;-85
2022/04/28 01:50:08;;;;;;;26.53;14.67;;;4.00;85.80;;;;;;4809915;29;20307;-84
2022/04/28 01:55:17;;;;;;;23.63;13.83;;;3.90;86.20;;;;;;4826290;29;20746;-84
2022/04/28 01:57:43;;;;;;;23.83;13.57;;;3.90;86.50;;;;;;4826077;29;20180;-84
2022/04/28 02:00:09;;;;;;;25.23;13.70;;;4.00;86.70;;;;;;4826133;29;20228;-84
2022/04/28 02:02:35;;;;;;;21.20;12.63;;;4.00;86.80;;;;;;4809641;29;20555;-85
2022/04/28 02:05:05;;;;;;;27.53;13.87;;;4.10;86.70;;;;;;4826138;29;20179;-85
2022/04/28 02:07:31;;;;;;;22.33;13.27;;;4.10;86.60;;;;;;4825991;29;20191;-84
2022/04/28 02:09:57;;;;;;;25.33;13.63;;;4.10;86.80;;;;;;4825581;29;20176;-84
2022/04/28 02:12:24;;;;;;;25.17;13.60;;;4.10;86.80;;;;;;4825852;29;20303;-83
2022/04/28 02:14:50;;;;;;;23.40;13.30;;;4.00;86.90;;;;;;4809557;29;20233;-85
2022/04/28 02:17:17;;;;;;;25.83;13.40;;;4.10;87.00;;;;;;4825863;29;20606;-85
2022/04/28 02:19:43;;;;;;;25.73;13.37;;;4.10;87.10;;;;;;4825807;29;20173;-84
2022/04/28 02:22:08;;;;;;;24.10;12.67;;;4.10;87.10;;;;;;4826940;29;20256;-84
2022/04/28 02:24:34;;;;;;;25.20;12.77;;;4.00;87.20;;;;;;4825994;29;20579;-84
2022/04/28 02:26:59;;;;;;;20.27;12.53;;;3.90;87.20;;;;;;4825975;29;20193;-84
2022/04/28 02:29:25;;;;;;;21.57;11.90;;;3.90;87.20;;;;;;4809487;29;20173;-84
2022/04/28 02:31:50;;;;;;;21.37;11.70;;;3.90;87.20;;;;;;4809284;29;20662;-84
2022/04/28 02:34:16;;;;;;;23.13;11.37;;;3.80;86.70;;;;;;4825712;29;20578;-85
2022/04/28 02:36:41;;;;;;;23.03;12.93;;;3.80;87.00;;;;;;4809266;29;20706;-85
2022/04/28 02:39:07;;;;;;;20.37;11.47;;;3.80;87.30;;;;;;4809120;29;20566;-85
2022/04/28 02:41:33;;;;;;;24.57;11.47;;;3.80;87.70;;;;;;4825458;29;20557;-85
2022/04/28 02:43:58;;;;;;;17.67;11.00;;;3.90;87.80;;;;;;4825741;29;20555;-85
2022/04/28 02:46:24;;;;;;;16.90;10.97;;;3.80;87.60;;;;;;4809023;29;20180;-84
2022/04/28 02:48:49;;;;;;;23.03;10.17;;;3.90;87.50;;;;;;4809229;29;20180;-85
2022/04/28 02:51:15;;;;;;;17.67;10.83;;;3.90;87.40;;;;;;4808864;29;20236;-85
2022/04/28 02:53:41;;;;;;;15.07;9.70;;;3.90;87.20;;;;;;4825218;29;20196;-84
2022/04/28 02:56:06;;;;;;;21.20;9.97;;;3.90;87.00;;;;;;4808861;29;20562;-86
2022/04/28 02:58:34;;;;;;;15.53;9.27;;;3.80;86.00;;;;;;4808725;29;20191;-86
2022/04/28 03:01:00;;;;;;;17.63;9.53;;;3.40;85.00;;;;;;4825153;29;20267;-85
2022/04/28 03:03:25;;;;;;;13.67;9.07;;;3.30;85.00;;;;;;4808653;29;20299;-85
2022/04/28 03:11:20;;;;;;;20.07;11.40;;;3.40;85.40;;;;;;4825055;29;20246;-85
2022/04/28 03:13:45;;;;;;;18.77;10.33;;;3.50;85.80;;;;;;4808503;29;20570;-85
2022/04/28 03:16:11;;;;;;;22.23;10.83;;;3.60;86.40;;;;;;4824978;29;20184;-85
2022/04/28 03:18:37;;;;;;;15.97;10.10;;;3.60;86.80;;;;;;4824920;29;20179;-85
2022/04/28 03:21:05;;;;;;;16.27;10.23;;;3.50;86.10;;;;;;4807685;29;20555;-85
2022/04/28 03:23:30;;;;;;;18.70;9.40;;;3.40;85.30;;;;;;4824979;29;20211;-86
2022/04/28 03:25:56;;;;;;;17.17;9.87;;;3.40;85.20;;;;;;4808460;29;20240;-85
2022/04/28 03:28:22;;;;;;;14.13;9.13;;;3.40;85.00;;;;;;4808500;29;20184;-85
2022/04/28 03:30:49;;;;;;;15.67;9.50;;;3.40;84.90;;;;;;4808176;29;20212;-85
2022/04/28 03:33:16;;;;;;;17.07;9.43;;;3.40;84.70;;;;;;4808087;29;20220;-84
2022/04/28 03:35:42;;;;;;;19.10;9.37;;;3.40;84.50;;;;;;4824656;29;20177;-85
2022/04/28 03:38:13;;;;;;;11.80;9.17;;;3.40;84.40;;;;;;4824787;29;20199;-85
2022/04/28 03:40:40;;;;;;;12.73;8.60;;;3.40;84.00;;;;;;4808367;29;20316;-85
2022/04/28 03:43:05;;;;;;;13.90;8.53;;;3.40;83.60;;;;;;4808547;29;20627;-85
2022/04/28 03:45:32;;;;;;;14.33;8.23;;;3.30;83.30;;;;;;4824559;29;20269;-85
2022/04/28 03:47:58;;;;;;;11.93;8.90;;;3.30;83.20;;;;;;4808108;29;20220;-85
2022/04/28 03:50:24;;;;;;;15.50;9.07;;;3.40;83.20;;;;;;4808007;29;20291;-85
2022/04/28 03:52:50;;;;;;;12.77;9.27;;;3.30;82.50;;;;;;4824334;29;20199;-85
2022/04/28 03:55:15;;;;;;;16.10;8.87;;;3.30;82.60;;;;;;4824420;29;20174;-85
2022/04/28 03:57:41;;;;;;;16.17;8.97;;;3.20;82.50;;;;;;4807989;29;20538;-85
2022/04/28 04:00:07;;;;;;;14.33;9.40;;;3.20;82.60;;;;;;4807965;29;20176;-85
2022/04/28 04:02:33;;;;;;;12.90;8.20;;;3.20;82.60;;;;;;4824305;29;20227;-85
2022/04/28 04:04:58;;;;;;;11.73;9.33;;;3.10;82.60;;;;;;4807858;29;20674;-84
2022/04/28 04:07:32;;;;;;;12.00;8.93;;;3.20;82.80;;;;;;4808036;29;20705;-85
2022/04/28 04:09:58;;;;;;;13.70;9.23;;;3.30;82.90;;;;;;4824654;29;20172;-85
2022/04/28 04:12:25;;;;;;;17.53;9.27;;;3.30;82.80;;;;;;4807763;29;20224;-85
2022/04/28 04:14:54;;;;;;;20.53;9.80;;;3.40;82.80;;;;;;4807830;29;20180;-85
2022/04/28 04:17:20;;;;;;;11.60;9.10;;;3.50;82.70;;;;;;4824536;29;20254;-85
2022/04/28 04:19:45;;;;;;;11.47;9.13;;;3.60;82.60;;;;;;4807704;29;20183;-85
2022/04/28 04:22:11;;;;;;;12.53;8.90;;;3.60;82.40;;;;;;4824140;29;20544;-85
2022/04/28 04:24:37;;;;;;;12.43;9.07;;;3.60;82.50;;;;;;4808043;29;20188;-85
2022/04/28 04:27:03;;;;;;;19.50;9.23;;;3.80;82.60;;;;;;4807663;29;20240;-85
2022/04/28 04:29:29;;;;;;;10.20;8.00;;;3.90;82.30;;;;;;4807703;29;20659;-85
2022/04/28 04:34:38;;;;;;;12.07;8.23;;;4.10;81.60;;;;;;4827901;29;20171;-84
2022/04/28 04:37:04;;;;;;;16.00;8.27;;;4.00;81.70;;;;;;4811239;29;20187;-85
2022/04/28 04:39:29;;;;;;;15.17;8.63;;;4.00;82.40;;;;;;4811226;29;20184;-85
2022/04/28 04:41:55;;;;;;;13.37;7.77;;;4.00;82.20;;;;;;4827309;29;20211;-86
2022/04/28 04:44:20;;;;;;;11.53;7.97;;;4.10;82.00;;;;;;4811059;29;20648;-85
2022/04/28 04:46:46;;;;;;;15.40;8.63;;;4.10;81.80;;;;;;4810998;29;20188;-85
2022/04/28 04:49:12;;;;;;;9.90;8.13;;;4.00;82.20;;;;;;4810948;29;20292;-85
2022/04/28 04:51:37;;;;;;;14.77;9.73;;;4.00;82.10;;;;;;4827413;29;20215;-85
2022/04/28 04:54:03;;;;;;;16.97;9.50;;;4.10;82.00;;;;;;4811254;29;20555;-85
2022/04/28 04:56:29;;;;;;;17.10;9.27;;;4.00;81.80;;;;;;4810738;29;20219;-85
2022/04/28 04:58:54;;;;;;;17.43;9.80;;;4.20;82.00;;;;;;4827099;29;20176;-85
2022/04/28 05:01:20;;;;;;;13.77;8.67;;;4.30;82.00;;;;;;4810709;29;20192;-84
2022/04/28 05:03:45;;;;;;;13.60;9.57;;;4.30;82.10;;;;;;4810746;29;20188;-84
2022/04/28 05:06:11;;;;;;;14.67;9.20;;;4.50;82.00;;;;;;4826930;29;20190;-84
2022/04/28 05:08:36;;;;;;;15.17;9.60;;;4.60;81.50;;;;;;4810658;29;20221;-85
2022/04/28 05:11:02;;;;;;;19.07;9.23;;;4.60;81.90;;;;;;4810545;29;20220;-85
2022/04/28 05:13:28;;;;;;;19.67;10.70;;;4.80;82.10;;;;;;4810478;29;20196;-85
2022/04/28 05:15:53;;;;;;;24.47;10.80;;;4.80;82.80;;;;;;4810634;29;20278;-85
2022/04/28 05:18:19;;;;;;;17.73;10.67;;;4.90;84.10;;;;;;4826728;29;20227;-85
2022/04/28 05:20:45;;;;;;;21.07;11.30;;;5.00;85.30;;;;;;4810495;29;20240;-85
2022/04/28 05:23:10;;;;;;;20.80;12.13;;;5.00;85.60;;;;;;4810335;29;20214;-85
2022/04/28 05:25:36;;;;;;;17.37;12.03;;;5.00;85.80;;;;;;4810341;29;20215;-85
2022/04/28 05:28:02;;;;;;;16.97;11.50;;;5.10;85.90;;;;;;4826670;29;20717;-85
2022/04/28 05:30:27;;;;;;;23.83;12.93;;;5.20;85.60;;;;;;4810345;29;20244;-85
2022/04/28 05:32:53;;;;;;;20.27;12.20;;;5.20;85.50;;;;;;4810194;29;20223;-85
2022/04/28 05:35:19;;;;;;;20.73;12.53;;;5.30;85.90;;;;;;4810252;29;20186;-85
2022/04/28 05:37:45;;;;;;;22.40;13.17;;;5.30;86.00;;;;;;4826426;29;20575;-85
2022/04/28 05:40:13;;;;;;;22.10;12.80;;;5.40;86.30;;;;;;4810075;29;20683;-85
2022/04/28 05:45:42;;;;;;;28.50;13.90;;;5.60;86.70;;;;;;4826485;29;20188;-85
2022/04/28 05:48:12;;;;;;;23.67;12.33;;;5.70;86.90;;;;;;4826321;29;20165;-85
2022/04/28 05:50:38;;;;;;;22.53;13.00;;;5.80;87.00;;;;;;4809886;29;20279;-85
2022/04/28 05:53:04;;;;;;;17.73;13.27;;;5.90;87.30;;;;;;4810244;29;20213;-85
2022/04/28 05:55:30;;;;;;;24.07;13.80;;;6.10;87.60;;;;;;4826418;29;20646;-85
2022/04/28 05:57:59;;;;;;;21.30;15.13;;;6.10;87.70;;;;;;4809784;29;20646;-84
2022/04/28 06:00:26;;;;;;;25.03;13.97;;;6.30;88.20;;;;;;4826149;29;20182;-84
2022/04/28 06:02:52;;;;;;;21.30;13.93;;;6.30;88.30;;;;;;4826314;29;20198;-85
2022/04/28 06:05:18;;;;;;;23.33;12.80;;;6.70;88.50;;;;;;4825944;29;20179;-84
2022/04/28 06:07:43;;;;;;;23.03;12.50;;;6.90;87.90;;;;;;4826015;29;20183;-85
2022/04/28 06:10:09;;;;;;;23.90;10.80;;;7.10;87.30;;;;;;4825888;29;20210;-85
2022/04/28 06:12:35;;;;;;;14.47;10.43;;;7.20;86.40;;;;;;4809437;29;20208;-85
2022/04/28 06:15:01;;;;;;;15.37;9.83;;;7.30;86.40;;;;;;4809520;29;20183;-85
2022/04/28 06:17:26;;;;;;;18.73;10.20;;;7.40;85.90;;;;;;4809539;29;20184;-85
2022/04/28 06:19:52;;;;;;;22.53;10.57;;;7.50;85.20;;;;;;4825897;29;20537;-85
2022/04/28 06:22:17;;;;;;;17.07;9.50;;;7.60;84.90;;;;;;4825792;29;20206;-85
2022/04/28 06:24:43;;;;;;;17.73;8.80;;;7.50;83.30;;;;;;4809393;29;20270;-85
2022/04/28 06:27:08;;;;;;;18.93;9.50;;;7.60;83.50;;;;;;4809344;29;20191;-84
2022/04/28 06:29:34;;;;;;;15.20;8.70;;;7.70;83.70;;;;;;4825790;29;20192;-86
2022/04/28 06:31:59;;;;;;;22.00;8.50;;;7.80;83.40;;;;;;4825709;29;20212;-85
2022/04/28 06:34:25;;;;;;;18.20;8.57;;;7.90;82.80;;;;;;4825721;29;20631;-85
2022/04/28 06:36:50;;;;;;;22.63;8.50;;;8.00;82.20;;;;;;4809363;29;20203;-85
2022/04/28 06:39:16;;;;;;;17.63;7.83;;;8.10;81.80;;;;;;4825580;29;20191;-86
2022/04/28 06:41:41;;;;;;;25.57;8.90;;;8.20;80.90;;;;;;4809172;29;20206;-86
2022/04/28 06:44:07;;;;;;;12.27;7.57;;;8.30;81.00;;;;;;4809171;29;20192;-86
2022/04/28 06:46:32;;;;;;;16.10;8.53;;;8.30;80.10;;;;;;4809243;29;20685;-85
2022/04/28 06:48:58;;;;;;;17.73;8.50;;;8.30;80.10;;;;;;4825659;29;20660;-87
2022/04/28 06:51:24;;;;;;;13.60;7.90;;;8.40;79.90;;;;;;4809016;29;20204;-87
2022/04/28 06:53:49;;;;;;;15.73;8.73;;;8.40;79.30;;;;;;4809145;29;20562;-87
2022/04/28 06:56:15;;;;;;;18.70;8.13;;;8.50;79.90;;;;;;4825361;29;20264;-86
2022/04/28 06:58:40;;;;;;;11.37;8.20;;;8.50;80.20;;;;;;4825707;29;20259;-86
2022/04/28 07:01:06;;;;;;;20.37;9.17;;;8.60;80.10;;;;;;4826449;29;20208;-88
2022/04/28 07:03:32;;;;;;;18.13;8.83;;;8.60;80.00;;;;;;4809393;29;20801;-87
2022/04/28 07:05:58;;;;;;;15.40;8.30;;;8.70;79.80;;;;;;4825379;29;20184;-87
2022/04/28 07:08:24;;;;;;;14.10;8.80;;;8.80;80.60;;;;;;4825292;29;20655;-87
2022/04/28 07:10:49;;;;;;;17.73;8.73;;;8.80;80.10;;;;;;4808852;29;20204;-86
2022/04/28 07:13:15;;;;;;;16.67;8.50;;;8.90;80.00;;;;;;4808622;29;20689;-84
2022/04/28 07:15:41;;;;;;;17.60;7.80;;;8.90;80.10;;;;;;4809535;29;20279;-85
2022/04/28 07:18:07;;;;;;;14.20;7.67;;;9.10;80.60;;;;;;4825734;29;20181;-85
2022/04/28 07:20:35;;;;;;;13.77;6.83;;;9.10;80.60;;;;;;4825726;29;20195;-86
2022/04/28 07:23:02;;;;;;;18.87;8.10;;;9.10;80.30;;;;;;4810180;29;20215;-85
2022/04/28 07:25:30;;;;;;;17.10;7.80;;;9.10;79.90;;;;;;4809037;29;20184;-86
2022/04/28 07:27:57;;;;;;;16.67;8.60;;;9.30;80.80;;;;;;4825265;29;20184;-85
2022/04/28 07:30:23;;;;;;;13.50;7.83;;;9.20;79.70;;;;;;4825353;29;20188;-86
2022/04/28 07:32:49;;;;;;;21.30;8.03;;;9.30;80.00;;;;;;4824722;29;20210;-85
2022/04/28 07:35:15;;;;;;;16.30;7.93;;;9.50;80.30;;;;;;4809102;29;20179;-87
2022/04/28 07:37:40;;;;;;;16.30;7.23;;;9.70;79.80;;;;;;4808433;29;20187;-86
2022/04/28 07:40:07;;;;;;;16.87;7.37;;;9.70;78.20;;;;;;4808402;29;20180;-86
2022/04/28 07:42:33;;;;;;;14.97;6.23;;;9.70;77.90;;;;;;4808108;29;20250;-85
2022/04/28 07:44:59;;;;;;;16.70;7.23;;;9.70;78.60;;;;;;4808433;29;20188;-86
2022/04/28 07:47:26;;;;;;;16.47;7.20;;;9.60;78.50;;;;;;4808258;29;20195;-85
2022/04/28 07:49:53;;;;;;;13.57;7.20;;;9.60;78.70;;;;;;4808193;29;20278;-86
2022/04/28 07:52:18;;;;;;;22.90;7.93;;;9.80;79.40;;;;;;4824914;29;20220;-85
2022/04/28 07:54:44;;;;;;;17.87;7.00;;;10.00;79.00;;;;;;4808113;29;20184;-85
2022/04/28 07:57:10;;;;;;;15.70;7.20;;;10.10;78.50;;;;;;4808140;29;20648;-86
2022/04/28 07:59:37;;;;;;;16.10;6.53;;;10.30;78.00;;;;;;4808715;29;20207;-87
2022/04/28 08:02:03;;;;;;;17.47;5.97;;;10.40;77.20;;;;;;4808102;29;20211;-88
2022/04/28 08:04:29;;;;;;;18.40;6.47;;;10.60;78.10;;;;;;4808069;29;20279;-86
2022/04/28 08:06:55;;;;;;;16.00;7.30;;;10.60;77.20;;;;;;4807405;29;20655;-87
2022/04/28 08:09:21;;;;;;;19.70;6.53;;;10.50;77.20;;;;;;4824747;29;20194;-88
2022/04/28 08:11:47;;;;;;;15.57;6.40;;;10.60;76.90;;;;;;4808419;29;20276;-86
2022/04/28 08:14:13;;;;;;;21.70;7.43;;;10.80;77.30;;;;;;4808508;29;20244;-88
2022/04/28 08:16:38;;;;;;;16.23;6.67;;;10.80;76.20;;;;;;4824587;29;20691;-89
2022/04/28 08:19:04;;;;;;;20.17;6.87;;;11.00;75.80;;;;;;4808089;29;20208;-88
2022/04/28 08:21:30;;;;;;;15.10;6.43;;;11.00;74.30;;;;;;4808233;29;20257;-88
2022/04/28 08:23:57;;;;;;;15.43;6.47;;;11.20;74.60;;;;;;4808292;29;20209;-88
2022/04/28 08:26:23;;;;;;;13.90;6.37;;;11.20;74.70;;;;;;4808120;29;20585;-88
2022/04/28 08:28:49;;;;;;;18.80;7.17;;;11.20;74.50;;;;;;4808386;29;20195;-88
2022/04/28 08:31:14;;;;;;;14.30;7.17;;;11.30;74.10;;;;;;4807953;29;20582;-88
2022/04/28 08:33:40;;;;;;;16.47;6.53;;;11.50;71.80;;;;;;4829830;24;20239;-90
2022/04/28 08:36:06;;;;;;;18.97;6.20;;;11.20;71.30;;;;;;4808209;29;20551;-90
2022/04/28 08:38:32;;;;;;;16.30;6.30;;;11.30;72.70;;;;;;4808256;29;20188;-90
2022/04/28 08:41:03;;;;;;;13.10;5.80;;;11.20;73.90;;;;;;4808247;29;20591;-90
2022/04/28 08:43:30;;;;;;;17.40;5.73;;;11.70;72.90;;;;;;4808051;29;20640;-90
2022/04/28 08:48:52;;;;;;;17.27;6.13;;;12.00;70.30;;;;;;4824836;29;20164;-90
2022/04/28 08:51:19;;;;;;;15.83;4.83;;;12.20;69.50;;;;;;4808219;29;20222;-90
2022/04/28 08:53:47;;;;;;;12.63;5.30;;;12.20;67.90;;;;;;4824412;29;20222;-90
2022/04/28 08:56:14;;;;;;;12.40;5.70;;;12.50;67.60;;;;;;4824550;29;20176;-90
2022/04/28 08:58:39;;;;;;;12.40;5.10;;;12.70;68.80;;;;;;4808049;29;20184;-90
2022/04/28 09:01:05;;;;;;;12.27;5.57;;;12.50;68.50;;;;;;4809016;29;20545;-90
2022/04/28 09:03:31;;;;;;;13.93;5.70;;;12.50;68.50;;;;;;4807712;29;20208;-90
2022/04/28 09:05:57;;;;;;;24.83;5.63;;;12.50;69.10;;;;;;4807938;29;20185;-90
2022/04/28 09:08:22;;;;;;;12.23;5.50;;;12.90;68.20;;;;;;4807977;29;20303;-90
2022/04/28 09:10:48;;;;;;;10.03;4.83;;;12.90;66.30;;;;;;4823906;29;20204;-90
2022/04/28 09:15:59;;;;;;;14.47;5.57;;;12.40;69.30;;;;;;4824876;29;20202;-90
2022/04/28 09:18:25;;;;;;;15.30;6.53;;;12.80;68.10;;;;;;4824386;29;20208;-90
2022/04/28 09:20:50;;;;;;;15.13;6.40;;;13.00;67.50;;;;;;4811086;29;20191;-90
2022/04/28 09:23:18;;;;;;;12.40;6.17;;;13.30;66.50;;;;;;4810910;29;20200;-90
2022/04/28 09:25:45;;;;;;;18.53;5.70;;;13.30;64.70;;;;;;4810722;29;20176;-90
2022/04/28 09:28:11;;;;;;;13.40;5.70;;;13.20;65.60;;;;;;4811175;29;20184;-90
2022/04/28 09:30:49;;;;;;;18.83;6.33;;;13.30;64.20;;;;;;4810543;29;20207;-90
2022/04/28 09:33:18;;;;;;;16.17;5.70;;;13.50;64.60;;;;;;4810767;29;20295;-90
2022/04/28 09:35:51;;;;;;;16.60;5.30;;;13.80;64.90;;;;;;4810564;29;20168;-91
2022/04/28 09:38:17;;;;;;;12.83;6.30;;;13.60;64.80;;;;;;4811327;29;20187;-90
2022/04/28 09:43:29;;;;;;;14.97;6.20;;;13.80;64.80;;;;;;4827237;29;20240;-90
2022/04/28 09:45:56;;;;;;;15.77;6.60;;;14.00;63.80;;;;;;4810322;29;20663;-91
2022/04/28 09:48:24;;;;;;;12.97;5.87;;;14.10;63.50;;;;;;4811083;29;20239;-91
2022/04/28 09:50:50;;;;;;;14.27;6.80;;;14.40;63.10;;;;;;4810547;29;20679;-91
2022/04/28 09:53:19;;;;;;;13.90;6.37;;;14.50;61.60;;;;;;4810507;29;20196;-91
2022/04/28 09:55:47;;;;;;;14.20;7.10;;;14.30;62.50;;;;;;4810271;29;20207;-91
2022/04/28 09:58:14;;;;;;;13.73;7.07;;;14.60;64.10;;;;;;4826449;29;20184;-91
2022/04/28 10:00:40;;;;;;;14.60;7.20;;;14.80;62.90;;;;;;4810061;29;20556;-91
2022/04/28 10:03:09;;;;;;;16.57;7.17;;;14.80;65.20;;;;;;4809960;29;20207;-91
2022/04/28 10:05:36;;;;;;;14.97;7.23;;;14.40;62.40;;;;;;4826438;29;20262;-90
2022/04/28 10:08:03;;;;;;;13.17;7.10;;;14.20;64.40;;;;;;4809875;29;20184;-91
2022/04/28 10:10:29;;;;;;;13.80;6.97;;;15.00;63.70;;;;;;4810094;29;20673;-91
2022/04/28 10:12:55;;;;;;;18.33;7.70;;;15.30;63.10;;;;;;4809816;29;20204;-91
2022/04/28 10:15:22;;;;;;;15.23;8.23;;;15.50;62.20;;;;;;4809915;29;20240;-91
2022/04/28 10:18:16;;;;;;;17.60;7.97;;;15.60;59.70;;;;;;4809782;29;20176;-91
2022/04/28 10:20:47;;;;;;;15.50;7.77;;;15.00;60.40;;;;;;4809482;29;20193;-91
2022/04/28 10:23:15;;;;;;;17.07;8.37;;;14.70;61.40;;;;;;4825960;29;20203;-91
2022/04/28 10:34:17;;;;;;;13.88;8.70;;;16.00;59.60;;;;;;4826149;29;20269;-90
2022/04/28 10:37:06;;;;;;;17.95;9.15;;;15.50;58.60;;;;;;4809617;29;20659;-90
2022/04/28 10:39:42;;;;;;;12.45;8.18;;;15.60;58.80;;;;;;4810123;29;20183;-90
2022/04/28 10:42:40;;;;;;;11.30;8.05;;;15.70;59.90;;;;;;4810745;29;20172;-90
2022/04/28 10:45:28;;;;;;;16.55;8.35;;;16.00;58.40;;;;;;4809755;29;20723;-90
2022/04/28 10:48:28;;;;;;;12.85;7.78;;;16.20;55.90;;;;;;4825860;29;20217;-90
2022/04/28 10:51:10;;;;;;;14.25;8.23;;;16.20;56.10;;;;;;4825700;29;20287;-90
2022/04/28 10:53:56;;;;;;;15.30;8.07;;;16.50;57.20;;;;;;4809614;29;20257;-90
2022/04/28 10:56:22;;;;;;;10.85;7.53;;;16.40;56.00;;;;;;4810197;29;20187;-90
2022/04/28 10:58:48;;;;;;;13.18;6.90;;;16.40;54.40;;;;;;4809449;29;20187;-90
2022/04/28 11:01:32;;;;;;;11.07;7.75;;;16.70;55.60;;;;;;4809123;29;20188;-89
2022/04/28 11:04:05;;;;;;;16.83;7.75;;;16.50;57.10;;;;;;4809451;29;20208;-90
2022/04/28 11:06:37;;;;;;;15.80;7.60;;;17.00;56.60;;;;;;4809190;29;20188;-90
2022/04/28 11:09:05;;;;;;;13.27;7.82;;;16.90;52.70;;;;;;4809747;29;20180;-90
2022/04/28 11:11:47;;;;;;;11.27;7.60;;;16.20;52.30;;;;;;4809858;29;20216;-90
2022/04/28 11:14:14;;;;;;;13.00;7.28;;;16.80;54.20;;;;;;4825077;29;20198;-90
2022/04/28 11:16:41;;;;;;;15.50;7.63;;;16.60;53.60;;;;;;4808771;29;20279;-90
2022/04/28 11:19:11;;;;;;;10.93;8.18;;;16.90;53.80;;;;;;4808628;29;20184;-89
2022/04/28 11:21:43;;;;;;;13.65;8.20;;;17.00;52.60;;;;;;4825009;29;20171;-89
2022/04/28 11:24:08;;;;;;;20.92;9.60;;;17.20;51.90;;;;;;4808731;29;20710;-90
2022/04/28 11:26:36;;;;;;;14.35;8.63;;;16.60;54.10;;;;;;4808961;29;20191;-90
2022/04/28 11:29:06;;;;;;;11.27;8.38;;;16.80;53.40;;;;;;4825300;29;20180;-89
2022/04/28 11:31:31;;;;;;;10.88;8.30;;;16.80;52.60;;;;;;4825360;29;20200;-90
2022/04/28 11:33:57;;;;;;;15.20;9.05;;;17.10;54.30;;;;;;4808688;29;20331;-90
2022/04/28 11:36:28;;;;;;;10.75;8.88;;;17.50;53.50;;;;;;4808469;29;20188;-90
2022/04/28 11:38:57;;;;;;;18.88;10.38;;;17.50;52.90;;;;;;4824851;29;20659;-90
2022/04/28 11:41:34;;;;;;;12.27;8.85;;;17.60;52.00;;;;;;4807802;29;20690;-90
2022/04/28 11:44:16;;;;;;;13.98;10.98;;;17.70;52.00;;;;;;4824976;29;20228;-91
2022/04/28 11:46:45;;;;;;;17.60;10.57;;;16.80;55.60;;;;;;4808361;29;20184;-91
2022/04/28 11:49:11;;;;;;;16.42;9.77;;;17.20;55.80;;;;;;4808260;29;20184;-90
2022/04/28 11:51:37;;;;;;;15.05;10.40;;;17.50;55.60;;;;;;4824766;29;20215;-91
2022/04/28 11:54:20;;;;;;;12.95;8.82;;;17.70;53.90;;;;;;4808775;29;20204;-90
2022/04/28 11:56:46;;;;;;;13.57;8.55;;;17.90;52.30;;;;;;4808442;29;20173;-91
2022/04/28 11:59:11;;;;;;;14.98;9.35;;;18.20;53.30;;;;;;4810843;29;20203;-90
2022/04/28 12:01:39;;;;;;;13.35;7.93;;;17.70;53.40;;;;;;4808414;29;20183;-91
2022/04/28 12:04:05;;;;;;;14.80;8.02;;;17.00;53.30;;;;;;4808107;29;20203;-91
2022/04/28 12:06:31;;;;;;;12.82;7.07;;;17.10;54.40;;;;;;4808036;29;20184;-91
2022/04/28 12:08:59;;;;;;;12.85;7.72;;;16.90;51.90;;;;;;4808233;29;20232;-91
2022/04/28 12:14:24;;;;;;;12.27;6.55;;;18.00;51.90;;;;;;4824976;29;20714;-91
2022/04/28 12:20:11;;;;;;;16.55;7.15;;;18.20;50.10;;;;;;4824885;29;20238;-91
2022/04/28 12:22:39;;;;;;;10.95;5.55;;;18.00;50.40;;;;;;4807167;29;20231;-91
2022/04/28 12:25:10;;;;;;;15.32;5.97;;;18.10;50.60;;;;;;4808064;29;20764;-88
2022/04/28 12:27:38;;;;;;;12.70;5.80;;;18.70;50.30;;;;;;4807906;29;20554;-87
2022/04/28 12:30:08;;;;;;;12.40;5.55;;;17.90;49.40;;;;;;4807756;29;20271;-88
2022/04/28 12:32:45;;;;;;;16.23;4.75;;;18.00;49.40;;;;;;4807520;29;20586;-89
2022/04/28 12:35:21;;;;;;;14.57;4.18;;;18.10;53.90;;;;;;4824176;29;20172;-89
2022/04/28 12:37:46;;;;;;;14.82;4.75;;;18.10;51.10;;;;;;4807709;29;20168;-88
2022/04/28 12:40:19;;;;;;;8.35;4.20;;;18.20;52.70;;;;;;4807629;29;20191;-88
2022/04/28 12:42:47;;;;;;;9.60;3.40;;;18.90;48.90;;;;;;4823993;29;20237;-88
2022/04/28 12:45:13;;;;;;;12.80;3.50;;;18.90;49.50;;;;;;4807506;29;20184;-88
2022/04/28 12:47:41;;;;;;;13.60;3.55;;;18.40;52.30;;;;;;4807521;29;20191;-88
2022/04/28 12:50:24;;;;;;;12.63;3.53;;;18.00;52.40;;;;;;4823849;29;20333;-89
2022/04/28 12:52:50;;;;;;;13.25;2.90;;;17.80;54.00;;;;;;4808378;29;20667;-88
2022/04/28 12:55:18;;;;;;;13.73;3.47;;;17.60;53.90;;;;;;4827189;29;20685;-88
2022/04/28 12:57:45;;;;;;;13.98;3.10;;;18.10;52.00;;;;;;4827401;29;20659;-88
2022/04/28 13:00:11;;;;;;;9.90;2.63;;;18.60;51.60;;;;;;4810801;29;20184;-88
2022/04/28 13:02:37;;;;;;;8.98;2.85;;;18.60;50.00;;;;;;4810711;29;20194;-88
2022/04/28 13:05:18;;;;;;;8.80;2.35;;;18.20;50.70;;;;;;4810829;29;20267;-88
2022/04/28 13:07:44;;;;;;;11.20;2.97;;;18.60;48.60;;;;;;4826963;29;20203;-89
2022/04/28 13:10:12;;;;;;;11.32;3.13;;;18.50;50.70;;;;;;4810795;29;20184;-88
2022/04/28 13:12:38;;;;;;;11.38;2.47;;;18.20;51.30;;;;;;4810564;29;20222;-88
2022/04/28 13:15:05;;;;;;;7.68;2.65;;;18.50;50.90;;;;;;4810983;29;20185;-89
2022/04/28 13:17:31;;;;;;;7.65;2.63;;;18.40;50.40;;;;;;4810667;29;20189;-89
2022/04/28 13:19:57;;;;;;;9.38;2.65;;;18.70;48.60;;;;;;4810649;29;20184;-89
2022/04/28 13:22:23;;;;;;;10.45;2.58;;;18.20;49.80;;;;;;4810772;29;20554;-89